Terminal Aerodrome Forecast
Issued by NWS

Home | Current Version | Previous Version | Text Only | Print | Product List | Glossary Off
Versions: 1 2 3 4 5 6 7 8 9 10 11 12 13 14 15 16 17 18 19 20 21

000
FTUS43 KDLH 312333
TAFHYR
TAF
KHYR 312333Z 0100/0124 19012KT P6SM SKC
     FM010200 19007KT P6SM SCT040 SCT250
     FM010600 19003KT 4SM BR VCSH SCT004 BKN030
      TEMPO 0109/0113 1 1/2SM BR BKN005
     FM011500 22009KT P6SM VCSH SCT020 BKN120=

USA.gov is the U.S. government's official web portal to all federal, state and local government web resources and services.